Time;durP1;ratioP1;P1;durP2;ratioP2;P2;SDS_P1;SDS_P2;PMS_P1;PMS_P2;Temp;Humidity;BMP_temperature;BMP_pressure;BME280_temperature;BME280_humidity;BME280_pressure;Samples;Min_cycle;Max_cycle;Signal;HPM_P1;HPM_P2
2023/02/07 00:00:49;;;;;;;8.97;6.63;;;;;;;-0.85;98.75;151155.44;4984690;28;20434;-77
2023/02/07 00:03:15;;;;;;;11.53;7.57;;;;;;;-0.98;97.81;151120.88;4965341;28;20865;-77
2023/02/07 00:05:42;;;;;;;7.37;5.50;;;;;;;-1.07;97.26;151097.78;4988324;28;20547;-76
2023/02/07 00:08:10;;;;;;;12.03;5.97;;;;;;;-1.16;98.11;151075.97;4966886;28;20461;-76
2023/02/07 00:10:37;;;;;;;10.77;7.87;;;;;;;-1.15;97.84;151077.25;4983780;28;20441;-76
2023/02/07 00:13:04;;;;;;;9.40;6.10;;;;;;;-1.15;97.34;151077.25;4994318;28;20443;-76
2023/02/07 00:15:31;;;;;;;8.07;5.63;;;;;;;-1.16;97.19;151074.66;4991552;28;20564;-76
2023/02/07 00:17:57;;;;;;;8.90;6.50;;;;;;;-1.18;97.13;151069.56;4964292;28;20884;-76
2023/02/07 00:20:25;;;;;;;7.67;5.60;;;;;;;-1.14;96.70;151079.84;4967391;28;20500;-76
2023/02/07 00:22:54;;;;;;;9.70;5.77;;;;;;;-1.17;95.95;151073.44;4967793;28;20456;-76
2023/02/07 00:25:22;;;;;;;8.90;5.10;;;;;;;-1.22;95.69;151061.88;4965851;28;20492;-76
2023/02/07 00:27:49;;;;;;;11.80;6.83;;;;;;;-1.38;97.11;151020.84;4990902;28;20493;-76
2023/02/07 00:30:15;;;;;;;9.43;7.00;;;;;;;-1.43;97.21;151008.03;4968877;28;20884;-76
2023/02/07 00:32:42;;;;;;;7.97;5.90;;;;;;;-1.39;96.51;151017.03;4971441;28;20508;-76
2023/02/07 00:35:09;;;;;;;9.10;6.20;;;;;;;-1.33;95.53;151032.41;4974053;28;20651;-76
2023/02/07 00:37:36;;;;;;;9.33;6.00;;;;;;;-1.48;95.14;150993.94;4945811;28;20570;-76
2023/02/07 00:40:04;;;;;;;9.20;5.67;;;;;;;-1.53;96.62;150981.13;4965454;28;20438;-76
2023/02/07 00:42:32;;;;;;;6.20;5.60;;;;;;;-1.46;96.72;150999.09;4950541;28;20565;-76
2023/02/07 00:44:59;;;;;;;10.10;6.30;;;;;;;-1.35;95.52;151027.28;4969338;28;20524;-76
2023/02/07 00:47:26;;;;;;;8.57;6.20;;;;;;;-1.43;95.57;151008.03;4977237;28;20454;-76
2023/02/07 00:49:53;;;;;;;8.63;6.00;;;;;;;-1.46;96.13;151000.38;4968677;28;21123;-76
2023/02/07 00:52:19;;;;;;;8.20;5.73;;;;;;;-1.47;95.98;150997.81;4969296;28;20540;-77
2023/02/07 00:54:46;;;;;;;8.40;6.30;;;;;;;-1.39;95.52;151018.31;4966427;28;20516;-76
2023/02/07 00:57:13;;;;;;;8.83;6.07;;;;;;;-1.47;95.73;150997.81;4953916;28;20502;-76
2023/02/07 00:59:41;;;;;;;10.30;6.93;;;;;;;-1.40;95.89;151015.72;4952384;28;20453;-76
2023/02/07 01:02:07;;;;;;;10.10;7.60;;;;;;;-1.45;96.39;151002.91;4970267;28;21036;-76
2023/02/07 01:04:34;;;;;;;11.30;7.13;;;;;;;-1.50;96.93;150990.09;4977813;28;20505;-76
2023/02/07 01:07:01;;;;;;;10.27;7.33;;;;;;;-1.54;97.28;150979.88;4970257;28;20524;-76
2023/02/07 01:09:29;;;;;;;11.20;7.10;;;;;;;-1.56;96.87;150974.72;4962389;28;20461;-76
2023/02/07 01:11:55;;;;;;;11.00;7.33;;;;;;;-1.62;97.44;150959.38;4966145;28;20507;-76
2023/02/07 01:14:24;;;;;;;9.70;6.57;;;;;;;-1.70;97.52;150938.88;4938379;28;20529;-77
2023/02/07 01:16:52;;;;;;;10.10;7.13;;;;;;;-1.68;97.79;150943.97;4952722;28;20457;-77
2023/02/07 01:19:19;;;;;;;8.93;6.30;;;;;;;-1.67;98.14;150946.56;4965424;28;20876;-76
2023/02/07 01:21:46;;;;;;;8.53;5.73;;;;;;;-1.75;98.42;150924.78;4995787;28;20463;-76
2023/02/07 01:24:12;;;;;;;11.73;7.27;;;;;;;-1.75;98.95;150924.78;4989240;28;20513;-77
2023/02/07 01:26:39;;;;;;;16.20;8.53;;;;;;;-1.75;99.56;150926.06;4974490;28;20777;-77
2023/02/07 01:29:07;;;;;;;13.53;8.03;;;;;;;-1.65;98.68;150951.69;4951831;28;20465;-77
2023/02/07 01:31:35;;;;;;;10.17;7.50;;;;;;;-1.61;98.46;150961.91;4944410;29;20450;-76
2023/02/07 01:34:03;;;;;;;12.73;9.50;;;;;;;-1.69;99.15;150941.41;4968751;28;20484;-76
2023/02/07 01:36:30;;;;;;;11.23;8.20;;;;;;;-1.70;99.66;150938.88;4953820;28;20812;-77
2023/02/07 01:38:57;;;;;;;13.33;9.03;;;;;;;-1.74;100.00;150927.31;4984514;28;20452;-76
2023/02/07 01:41:25;;;;;;;12.83;10.00;;;;;;;-1.79;100.00;150915.78;4981741;28;20466;-77
2023/02/07 01:43:58;;;;;;;15.13;9.37;;;;;;;-1.81;100.00;150909.38;4975709;28;20959;-76
2023/02/07 01:46:25;;;;;;;14.43;9.83;;;;;;;-1.84;100.00;150902.97;4976715;28;20520;-76
2023/02/07 01:48:54;;;;;;;12.00;8.00;;;;;;;-1.93;100.00;150879.91;4993950;28;20857;-77
2023/02/07 01:51:23;;;;;;;14.47;9.23;;;;;;;-1.93;100.00;150881.19;4974977;28;20516;-75
2023/02/07 01:53:49;;;;;;;12.13;9.00;;;;;;;-1.95;100.00;150874.78;4974066;28;20504;-75
2023/02/07 01:56:17;;;;;;;13.77;9.50;;;;;;;-1.96;100.00;150872.25;4978514;28;20565;-77
2023/02/07 01:58:43;;;;;;;16.00;10.40;;;;;;;-1.99;100.00;150864.56;4943021;28;20516;-76
2023/02/07 02:01:15;;;;;;;15.40;10.50;;;;;;;-1.97;100.00;150869.69;4974662;28;20468;-76
2023/02/07 02:03:45;;;;;;;14.43;9.50;;;;;;;-1.98;100.00;150867.09;4942765;28;20499;-76
2023/02/07 02:06:12;;;;;;;15.00;10.07;;;;;;;-2.06;100.00;150846.59;4992607;28;20457;-76
2023/02/07 02:08:41;;;;;;;14.27;10.50;;;;;;;-2.09;100.00;150838.97;4953458;28;20457;-77
2023/02/07 02:11:20;;;;;;;15.37;10.43;;;;;;;-2.16;100.00;150821.00;4970719;28;20527;-76
2023/02/07 02:13:51;;;;;;;14.67;10.53;;;;;;;-2.18;100.00;150815.91;4953104;28;20497;-77
2023/02/07 02:16:28;;;;;;;13.13;9.60;;;;;;;-2.18;100.00;150815.91;4992706;28;20569;-77
2023/02/07 02:19:25;;;;;;;18.77;10.80;;;;;;;-2.30;100.00;150786.41;4981001;28;20480;-77
2023/02/07 02:22:26;;;;;;;9.50;7.53;;;;;;;-2.38;100.00;150765.94;4970728;28;20460;-77
2023/02/07 02:25:22;;;;;;;10.23;7.13;;;;;;;-2.42;100.00;150755.72;4972707;28;20925;-77
2023/02/07 02:28:13;;;;;;;14.40;9.70;;;;;;;-2.47;100.00;150744.19;4943884;29;20558;-76
2023/02/07 02:31:13;;;;;;;15.27;10.47;;;;;;;-2.49;100.00;150737.81;4951530;28;20457;-76
2023/02/07 02:33:48;;;;;;;17.37;11.47;;;;;;;-2.46;100.00;150745.44;4992557;28;20568;-77
2023/02/07 02:36:20;;;;;;;16.37;8.97;;;;;;;-2.51;100.00;150732.66;4953650;28;20478;-76
2023/02/07 02:38:52;;;;;;;14.20;9.80;;;;;;;-2.43;100.00;150751.84;4937728;28;20552;-73
2023/02/07 02:41:22;;;;;;;18.67;10.90;;;;;;;-2.46;100.00;150746.72;4976411;28;20464;-75
2023/02/07 02:43:53;;;;;;;16.03;10.33;;;;;;;-2.45;100.00;150748.03;5003795;28;20558;-74
2023/02/07 02:46:22;;;;;;;18.33;11.67;;;;;;;-2.53;100.00;150728.81;4975416;28;20451;-74
2023/02/07 02:48:50;;;;;;;17.97;11.20;;;;;;;-2.48;100.00;150741.63;4991746;28;20460;-76
2023/02/07 02:51:17;;;;;;;13.53;8.67;;;;;;;-2.57;100.00;150718.56;4975583;28;20479;-76
2023/02/07 02:53:51;;;;;;;15.20;10.30;;;;;;;-2.55;100.00;150723.72;4971150;28;20460;-76
2023/02/07 02:56:41;;;;;;;15.70;11.00;;;;;;;-2.55;100.00;150723.72;4959147;28;20546;-76
2023/02/07 02:59:20;;;;;;;17.30;9.80;;;;;;;-2.58;100.00;150716.03;4980820;28;20461;-77
2023/02/07 03:01:53;;;;;;;17.43;11.03;;;;;;;-2.56;100.00;150719.84;4965110;28;20461;-73
2023/02/07 03:04:30;;;;;;;14.23;10.60;;;;;;;-2.48;100.00;150740.34;4972563;28;20436;-76
2023/02/07 03:07:07;;;;;;;13.70;10.33;;;;;;;-2.52;100.00;150731.41;4986965;28;21067;-75
2023/02/07 03:09:40;;;;;;;15.37;10.37;;;;;;;-2.43;97.86;150753.13;4954827;28;20455;-75
2023/02/07 03:12:13;;;;;;;17.03;10.67;;;;;;;-2.59;98.99;150713.44;4969352;28;20440;-76
2023/02/07 03:14:48;;;;;;;15.80;11.17;;;;;;;-2.54;99.15;150726.25;4971971;28;20861;-76
2023/02/07 03:17:21;;;;;;;15.70;10.53;;;;;;;-2.57;98.75;150718.56;4978721;28;23818;-76
2023/02/07 03:19:53;;;;;;;14.20;10.87;;;;;;;-2.60;98.54;150709.63;4984116;28;20469;-76
2023/02/07 03:22:22;;;;;;;15.80;11.23;;;;;;;-2.67;99.26;150692.97;4972866;28;20795;-76
2023/02/07 03:24:52;;;;;;;14.80;11.40;;;;;;;-2.67;99.41;150692.97;4970727;28;20488;-76
2023/02/07 03:27:21;;;;;;;18.17;11.47;;;;;;;-2.67;98.99;150692.97;4970009;28;20464;-76
2023/02/07 03:29:50;;;;;;;19.30;12.77;;;;;;;-2.68;100.00;150689.16;4962155;28;20415;-76
2023/02/07 03:32:18;;;;;;;14.17;10.57;;;;;;;-2.68;99.50;150690.44;4955537;28;20450;-76
2023/02/07 03:34:51;;;;;;;16.13;11.87;;;;;;;-2.76;100.00;150668.66;4970594;28;20554;-76
2023/02/07 03:37:22;;;;;;;17.77;12.53;;;;;;;-2.74;100.00;150673.78;4961334;28;20455;-76
2023/02/07 03:39:48;;;;;;;15.37;11.00;;;;;;;-2.70;99.47;150685.28;4969048;28;20625;-75
2023/02/07 03:42:21;;;;;;;21.30;13.37;;;;;;;-2.76;100.00;150669.94;4944730;28;20454;-76
2023/02/07 03:44:49;;;;;;;18.43;12.70;;;;;;;-2.80;100.00;150659.69;4981739;28;20454;-76
2023/02/07 03:47:17;;;;;;;17.13;12.03;;;;;;;-2.81;99.76;150657.16;4991998;28;20485;-74
2023/02/07 03:49:44;;;;;;;17.60;12.87;;;;;;;-2.76;98.01;150669.94;4959081;28;20424;-75
2023/02/07 03:52:12;;;;;;;16.73;12.47;;;;;;;-2.84;98.84;150649.47;4991302;28;20457;-76
2023/02/07 03:54:38;;;;;;;21.07;13.00;;;;;;;-2.85;98.17;150646.91;4966541;28;20454;-75
2023/02/07 03:57:05;;;;;;;16.87;11.20;;;;;;;-2.78;97.44;150664.78;4970260;28;20507;-74
2023/02/07 03:59:32;;;;;;;16.07;10.70;;;;;;;-2.86;97.85;150644.31;4961517;28;20419;-75
2023/02/07 04:02:01;;;;;;;18.27;12.20;;;;;;;-2.82;97.06;150654.56;4959845;28;20445;-75
2023/02/07 04:04:28;;;;;;;12.70;9.57;;;;;;;-2.68;95.36;150690.44;4985621;28;20876;-75
2023/02/07 04:06:55;;;;;;;19.00;12.33;;;;;;;-2.82;95.81;150653.28;4977608;28;20479;-75
2023/02/07 04:09:23;;;;;;;15.23;11.57;;;;;;;-2.81;96.44;150657.16;4988346;28;20446;-74
2023/02/07 04:11:50;;;;;;;16.93;11.30;;;;;;;-2.77;96.58;150667.38;4976909;28;20516;-76
2023/02/07 04:14:18;;;;;;;16.30;10.80;;;;;;;-2.77;96.49;150667.38;4958563;28;20492;-75
2023/02/07 04:16:45;;;;;;;15.37;11.07;;;;;;;-2.84;95.92;150649.47;4968799;28;20516;-75
2023/02/07 04:19:12;;;;;;;14.37;10.60;;;;;;;-2.85;95.51;150646.91;4969662;28;20458;-76
2023/02/07 04:21:39;;;;;;;13.73;9.90;;;;;;;-2.89;95.20;150635.38;4969638;28;20457;-75
2023/02/07 04:24:05;;;;;;;17.77;11.53;;;;;;;-2.69;93.90;150687.84;4969150;28;20585;-75
2023/02/07 04:26:35;;;;;;;14.50;10.83;;;;;;;-2.84;95.23;150649.47;4986320;28;20517;-74
2023/02/07 04:29:01;;;;;;;8.80;5.47;;;;;;;-2.86;93.60;150644.31;4961358;28;20453;-76
2023/02/07 04:31:28;;;;;;;14.97;9.67;;;;;;;-2.85;93.99;150646.91;4967230;28;20978;-76
2023/02/07 04:33:55;;;;;;;15.23;10.37;;;;;;;-2.86;94.09;150644.31;4983105;28;20880;-76
2023/02/07 04:36:22;;;;;;;15.80;10.90;;;;;;;-2.90;94.90;150632.81;4958662;28;20454;-76
2023/02/07 04:38:49;;;;;;;15.30;10.70;;;;;;;-2.94;94.57;150623.88;4961330;28;20793;-76
2023/02/07 04:41:16;;;;;;;16.20;12.63;;;;;;;-2.92;94.80;150629.00;4975308;28;20491;-76
2023/02/07 04:43:44;;;;;;;16.87;10.90;;;;;;;-2.93;94.89;150625.13;4976068;28;20910;-76
2023/02/07 04:46:10;;;;;;;12.70;9.60;;;;;;;-2.90;95.20;150632.81;4970801;28;20444;-76
2023/02/07 04:48:37;;;;;;;14.93;10.33;;;;;;;-2.96;95.56;150618.72;4971276;28;20505;-76
2023/02/07 04:51:05;;;;;;;16.37;11.07;;;;;;;-3.00;95.12;150607.22;4968676;28;20531;-76
2023/02/07 04:53:31;;;;;;;13.83;10.60;;;;;;;-2.97;94.28;150616.19;4965282;28;20466;-76
2023/02/07 04:55:59;;;;;;;18.17;11.07;;;;;;;-2.92;93.92;150629.00;4960804;28;20507;-76
2023/02/07 04:58:27;;;;;;;16.07;11.43;;;;;;;-3.01;94.75;150605.94;4966538;28;20441;-76
2023/02/07 05:00:55;;;;;;;15.83;10.80;;;;;;;-2.97;93.73;150616.19;4966374;28;20489;-76
2023/02/07 05:03:21;;;;;;;19.10;11.40;;;;;;;-2.94;93.72;150622.59;4968820;28;20473;-76
2023/02/07 05:05:48;;;;;;;15.23;12.03;;;;;;;-2.92;93.75;150629.00;4969997;28;20448;-76
2023/02/07 05:08:15;;;;;;;16.33;11.90;;;;;;;-3.01;93.40;150605.94;4973397;28;20454;-76
2023/02/07 05:10:42;;;;;;;16.13;11.43;;;;;;;-3.09;93.71;150585.47;4976061;28;20491;-76
2023/02/07 05:13:09;;;;;;;19.90;9.00;;;;;;;-3.08;93.34;150588.03;4976972;28;20546;-76
2023/02/07 05:15:35;;;;;;;12.90;10.03;;;;;;;-3.13;92.58;150575.25;4989048;28;20479;-76
2023/02/07 05:18:04;;;;;;;12.97;9.80;;;;;;;-3.12;92.54;150577.78;4973944;28;20476;-76
2023/02/07 05:20:31;;;;;;;16.70;10.73;;;;;;;-3.11;92.56;150580.34;4988470;28;20758;-75
2023/02/07 05:22:58;;;;;;;12.83;10.73;;;;;;;-3.09;92.89;150585.47;4990509;28;20532;-76
2023/02/07 05:25:25;;;;;;;16.10;10.37;;;;;;;-3.12;92.04;150579.06;4973960;28;20488;-76
2023/02/07 05:27:51;;;;;;;13.20;9.40;;;;;;;-3.19;92.51;150561.16;4986614;28;20790;-76
2023/02/07 05:30:19;;;;;;;14.80;10.83;;;;;;;-3.19;92.58;150561.16;4971310;28;20495;-76
2023/02/07 05:33:04;;;;;;;20.20;13.50;;;;;;;-3.14;92.31;150572.66;4987727;28;20459;-76
2023/02/07 05:35:33;;;;;;;18.03;11.27;;;;;;;-3.10;90.94;150584.16;4990883;28;20452;-76
2023/02/07 05:38:00;;;;;;;11.43;9.00;;;;;;;-3.24;91.74;150547.09;4963974;28;20909;-76
2023/02/07 05:40:27;;;;;;;14.33;9.23;;;;;;;-3.31;91.76;150529.19;4970836;28;20482;-75
2023/02/07 05:42:54;;;;;;;12.60;9.00;;;;;;;-3.28;91.79;150536.84;4972189;28;20457;-76
2023/02/07 05:45:21;;;;;;;12.80;8.60;;;;;;;-3.27;91.78;150539.41;4952910;28;20546;-76
2023/02/07 05:47:48;;;;;;;12.00;9.40;;;;;;;-3.34;92.91;150521.50;4985037;28;20515;-76
2023/02/07 05:50:15;;;;;;;12.60;9.73;;;;;;;-3.31;91.93;150530.44;4990313;28;20467;-76
2023/02/07 05:52:43;;;;;;;13.47;10.03;;;;;;;-3.31;92.23;150530.44;4977057;28;20558;-76
2023/02/07 05:55:11;;;;;;;12.40;8.97;;;;;;;-3.33;91.64;150524.03;4976725;28;20487;-76
2023/02/07 05:57:38;;;;;;;17.10;10.90;;;;;;;-3.35;91.76;150518.94;4985707;28;20485;-76
2023/02/07 06:00:06;;;;;;;13.27;9.60;;;;;;;-3.33;91.37;150524.03;4972256;28;20466;-76
2023/02/07 06:02:38;;;;;;;12.50;9.20;;;;;;;-3.36;91.73;150516.41;4973492;28;20545;-74
2023/02/07 06:05:05;;;;;;;14.70;9.40;;;;;;;-3.34;91.16;150521.50;4959895;28;21050;-75
2023/02/07 06:07:32;;;;;;;13.33;8.77;;;;;;;-3.38;90.43;150511.25;4967365;28;20448;-75
2023/02/07 06:10:00;;;;;;;12.43;8.90;;;;;;;-3.41;90.76;150503.56;4965751;28;20452;-80
2023/02/07 06:12:27;;;;;;;11.87;8.33;;;;;;;-3.40;91.41;150506.16;4984492;28;20472;-75
2023/02/07 06:14:53;;;;;;;14.30;9.00;;;;;;;-3.34;90.41;150521.50;4984551;28;20875;-75
2023/02/07 06:17:20;;;;;;;13.07;8.93;;;;;;;-3.41;90.50;150503.56;4966747;28;20594;-74
2023/02/07 06:19:47;;;;;;;14.80;9.10;;;;;;;-3.33;90.56;150524.03;4967664;28;20553;-75
2023/02/07 06:22:14;;;;;;;12.17;9.53;;;;;;;-3.43;90.78;150499.75;4979231;28;20506;-75
2023/02/07 06:24:41;;;;;;;9.73;8.40;;;;;;;-3.34;90.20;150521.50;4990652;28;20431;-75
2023/02/07 06:27:10;;;;;;;11.30;7.10;;;;;;;-3.46;91.24;150490.78;4968070;28;20438;-76
2023/02/07 06:29:36;;;;;;;16.63;10.67;;;;;;;-3.37;90.28;150515.13;4968387;28;20550;-75
2023/02/07 06:32:04;;;;;;;13.80;8.90;;;;;;;-3.31;90.29;150529.19;4961130;28;20503;-75
2023/02/07 06:34:31;;;;;;;11.37;8.80;;;;;;;-3.46;90.18;150490.78;4966002;28;20426;-74
2023/02/07 06:36:58;;;;;;;14.90;9.33;;;;;;;-3.52;90.23;150475.47;4966216;28;20464;-75
2023/02/07 06:39:24;;;;;;;24.73;12.17;;;;;;;-3.49;90.76;150484.38;4969201;28;20464;-76
2023/02/07 06:41:54;;;;;;;18.47;11.60;;;;;;;-3.53;90.86;150472.91;4968170;28;20452;-76
2023/02/07 06:44:23;;;;;;;13.67;9.77;;;;;;;-3.46;90.39;150492.06;4982490;28;20508;-76
2023/02/07 06:46:49;;;;;;;17.73;8.57;;;;;;;-3.52;91.37;150476.72;4949025;28;20457;-76
2023/02/07 06:49:16;;;;;;;14.57;9.93;;;;;;;-3.49;89.70;150483.09;4968603;28;20426;-76
2023/02/07 06:51:43;;;;;;;16.60;8.57;;;;;;;-3.50;90.02;150481.88;4968670;28;20539;-76
2023/02/07 06:54:09;;;;;;;13.40;9.27;;;;;;;-3.50;90.76;150481.88;4981790;28;20553;-76
2023/02/07 06:56:36;;;;;;;16.17;9.37;;;;;;;-3.47;90.90;150489.53;4968892;28;20486;-76
2023/02/07 06:59:03;;;;;;;12.47;9.03;;;;;;;-3.43;91.16;150498.47;4981834;28;20534;-76
2023/02/07 07:01:31;;;;;;;13.17;9.63;;;;;;;-3.32;90.45;150526.63;4966360;28;20439;-75
2023/02/07 07:04:00;;;;;;;11.70;9.10;;;;;;;-3.31;90.65;150530.44;4980710;28;20462;-76
2023/02/07 07:06:27;;;;;;;12.07;9.80;;;;;;;-3.29;90.56;150535.59;4947180;28;20450;-76
2023/02/07 07:08:54;;;;;;;13.73;9.90;;;;;;;-3.22;90.10;150553.50;4961539;28;20538;-76
2023/02/07 07:11:21;;;;;;;11.67;8.87;;;;;;;-3.15;90.53;150570.13;4947950;28;20475;-76
2023/02/07 07:13:47;;;;;;;16.03;9.80;;;;;;;-2.95;89.53;150621.31;4976120;28;20484;-76
2023/02/07 07:16:14;;;;;;;12.30;8.73;;;;;;;-2.75;88.44;150672.47;4966558;28;20496;-76
2023/02/07 07:18:42;;;;;;;15.20;10.40;;;;;;;-2.86;87.37;150644.31;4978589;28;21199;-76
2023/02/07 07:21:09;;;;;;;14.53;10.13;;;;;;;-2.73;87.82;150677.63;4963632;28;20520;-76
2023/02/07 07:23:36;;;;;;;12.67;8.80;;;;;;;-2.57;87.13;150718.56;4955654;28;20469;-76
2023/02/07 07:26:02;;;;;;;13.70;9.13;;;;;;;-2.30;87.28;150785.19;4966273;28;20501;-76
2023/02/07 07:28:30;;;;;;;15.27;10.57;;;;;;;-2.13;86.72;150830.00;4965258;28;20453;-76
2023/02/07 07:31:02;;;;;;;16.07;11.30;;;;;;;-1.96;86.01;150872.25;4959485;28;20495;-76
2023/02/07 07:33:28;;;;;;;15.13;10.03;;;;;;;-1.77;85.50;150920.91;4963935;28;20464;-76
2023/02/07 07:35:58;;;;;;;15.00;10.77;;;;;;;-1.55;84.33;150977.28;4968181;28;20562;-76
2023/02/07 07:38:25;;;;;;;13.67;10.27;;;;;;;-1.43;82.91;151006.78;4946960;28;20476;-75
2023/02/07 07:40:52;;;;;;;16.27;10.90;;;;;;;-1.17;83.53;151072.13;4982441;28;20539;-76
2023/02/07 07:43:19;;;;;;;15.90;10.90;;;;;;;-0.94;82.14;151132.38;4961710;28;20457;-76
2023/02/07 07:45:46;;;;;;;12.57;9.33;;;;;;;-0.82;80.93;151163.16;4983279;28;20882;-76
2023/02/07 07:48:13;;;;;;;14.93;10.53;;;;;;;-0.81;79.39;151164.44;4984026;28;20948;-76
2023/02/07 07:50:39;;;;;;;17.50;10.23;;;;;;;-0.84;77.67;151156.72;4968243;28;20545;-76
2023/02/07 07:53:07;;;;;;;14.97;9.77;;;;;;;-1.02;77.49;151111.88;4981365;28;20940;-75
2023/02/07 07:55:34;;;;;;;13.70;9.97;;;;;;;-1.10;78.26;151091.38;4966691;28;21075;-75
2023/02/07 07:58:01;;;;;;;15.03;10.13;;;;;;;-0.99;79.70;151118.28;4966377;28;20507;-77
2023/02/07 08:00:27;;;;;;;12.63;9.87;;;;;;;-0.97;77.99;151123.41;4966995;28;20492;-77
2023/02/07 08:02:54;;;;;;;12.13;9.40;;;;;;;-0.97;78.63;151123.41;4982819;28;20511;-77
2023/02/07 08:05:20;;;;;;;11.67;9.17;;;;;;;-1.16;78.54;151075.97;4964076;28;20513;-76
2023/02/07 08:07:48;;;;;;;13.83;10.27;;;;;;;-1.24;80.09;151056.75;4978184;28;21042;-76
2023/02/07 08:10:16;;;;;;;15.13;10.20;;;;;;;-1.22;78.36;151061.88;4964782;28;20486;-76
2023/02/07 08:12:43;;;;;;;12.90;9.70;;;;;;;-1.33;80.29;151032.41;4981639;28;20838;-76
2023/02/07 08:15:10;;;;;;;13.90;9.60;;;;;;;-1.28;80.07;151045.22;4964165;28;21026;-76
2023/02/07 08:17:37;;;;;;;14.80;11.40;;;;;;;-1.29;79.07;151042.66;4965320;28;20500;-76
2023/02/07 08:20:05;;;;;;;14.87;11.37;;;;;;;-1.40;79.53;151014.44;4980597;28;20479;-76
2023/02/07 08:22:32;;;;;;;14.43;10.73;;;;;;;-1.46;81.11;151000.38;4968033;28;20595;-74
2023/02/07 08:24:59;;;;;;;14.27;10.60;;;;;;;-1.45;81.13;151002.91;4966762;28;20660;-76
2023/02/07 08:27:27;;;;;;;13.60;10.73;;;;;;;-1.48;82.08;150993.94;4980633;28;20501;-76
2023/02/07 08:29:53;;;;;;;14.30;10.87;;;;;;;-1.42;80.55;151009.31;4963240;28;20547;-76
2023/02/07 08:32:20;;;;;;;16.40;11.20;;;;;;;-1.46;80.59;151000.38;4982511;28;20523;-76
2023/02/07 08:34:47;;;;;;;12.20;10.87;;;;;;;-1.55;80.84;150977.28;4979929;28;20507;-76
2023/02/07 08:37:13;;;;;;;16.13;10.57;;;;;;;-1.46;81.89;150999.09;4960701;28;21015;-76
2023/02/07 08:39:40;;;;;;;13.10;10.50;;;;;;;-1.55;82.61;150977.28;4981422;28;20477;-76
2023/02/07 08:42:08;;;;;;;14.00;9.93;;;;;;;-1.53;83.06;150982.41;4947018;28;20919;-76
2023/02/07 08:44:36;;;;;;;15.87;10.90;;;;;;;-1.56;82.88;150974.72;4963249;28;20473;-76
2023/02/07 08:47:04;;;;;;;16.90;10.83;;;;;;;-1.57;82.91;150972.19;4980744;28;20541;-76
2023/02/07 08:49:31;;;;;;;13.73;9.57;;;;;;;-1.54;83.08;150978.59;4964369;28;20702;-76
2023/02/07 08:51:58;;;;;;;16.40;11.50;;;;;;;-1.70;83.45;150938.88;4949402;28;20452;-76
2023/02/07 08:54:25;;;;;;;14.63;10.13;;;;;;;-1.72;83.98;150932.47;4950531;28;20492;-76
2023/02/07 08:56:51;;;;;;;15.73;11.47;;;;;;;-1.95;84.43;150874.78;4967760;28;20547;-76
2023/02/07 08:59:18;;;;;;;12.40;9.33;;;;;;;-1.87;84.53;150895.28;4966600;28;20795;-76
2023/02/07 09:01:46;;;;;;;12.80;9.47;;;;;;;-1.71;84.24;150936.28;4968767;28;20539;-76
2023/02/07 09:04:13;;;;;;;16.07;8.63;;;;;;;-1.71;82.85;150935.00;4949813;28;20935;-76
2023/02/07 09:06:40;;;;;;;15.50;10.30;;;;;;;-1.74;82.68;150927.31;4965446;28;20947;-76
2023/02/07 09:09:08;;;;;;;12.90;9.60;;;;;;;-1.79;82.75;150914.50;4964843;28;20468;-76
2023/02/07 09:11:35;;;;;;;16.40;9.47;;;;;;;-1.70;83.10;150938.88;4967189;28;20893;-76
2023/02/07 09:14:02;;;;;;;15.60;9.93;;;;;;;-1.55;82.71;150977.28;4969744;28;20466;-76
2023/02/07 09:16:29;;;;;;;12.67;8.70;;;;;;;-1.56;82.29;150973.47;4983899;28;20544;-76
2023/02/07 09:18:57;;;;;;;15.07;10.57;;;;;;;-1.50;82.73;150990.09;4965623;28;20601;-75
2023/02/07 09:21:24;;;;;;;13.07;10.17;;;;;;;-1.41;82.31;151013.19;4983176;28;20981;-76
2023/02/07 09:23:51;;;;;;;12.70;9.50;;;;;;;-1.30;81.51;151040.13;4966948;28;20552;-76
2023/02/07 09:26:22;;;;;;;12.30;9.43;;;;;;;-1.32;82.09;151034.94;4967300;28;20464;-76
2023/02/07 09:28:49;;;;;;;14.37;10.60;;;;;;;-1.28;82.31;151046.50;4967177;28;20448;-76
2023/02/07 09:31:16;;;;;;;13.83;10.20;;;;;;;-1.31;81.54;151038.81;4967243;28;20465;-75
2023/02/07 09:33:42;;;;;;;11.23;9.97;;;;;;;-1.28;81.63;151046.50;4982555;28;20464;-76
2023/02/07 09:36:18;;;;;;;12.53;10.00;;;;;;;-1.29;82.20;151043.94;4969102;28;20458;-75
2023/02/07 09:38:45;;;;;;;15.53;11.07;;;;;;;-1.29;80.48;151043.94;4965806;28;20481;-75
2023/02/07 09:41:21;;;;;;;12.00;9.20;;;;;;;-1.27;82.00;151047.75;4967060;28;20465;-76
2023/02/07 09:43:59;;;;;;;13.80;9.07;;;;;;;-1.14;81.80;151079.84;4968371;28;20842;-74
2023/02/07 09:46:30;;;;;;;12.50;10.17;;;;;;;-1.06;82.31;151100.34;4983509;28;20524;-74
2023/02/07 09:49:04;;;;;;;9.80;8.80;;;;;;;-0.98;81.10;151122.09;4982696;28;20457;-76
2023/02/07 09:51:33;;;;;;;15.43;11.03;;;;;;;-0.91;80.62;151138.78;4982672;28;20552;-77
2023/02/07 09:54:01;;;;;;;12.07;9.50;;;;;;;-0.79;80.70;151170.84;4983149;28;20471;-76
2023/02/07 09:56:30;;;;;;;13.97;10.30;;;;;;;-0.62;79.83;151214.47;4966130;28;20513;-76
2023/02/07 09:59:00;;;;;;;15.90;10.77;;;;;;;-0.59;79.76;151219.59;4967649;28;20488;-75
2023/02/07 10:01:30;;;;;;;11.97;7.43;;;;;;;-0.40;80.75;151269.63;4967422;28;20537;-76
2023/02/07 10:04:08;;;;;;;15.00;10.10;;;;;;;-0.36;79.24;151279.88;4953480;28;20814;-76
2023/02/07 10:06:36;;;;;;;13.10;10.20;;;;;;;-0.40;79.10;151269.63;4971330;28;20568;-76
2023/02/07 10:09:03;;;;;;;15.83;10.97;;;;;;;-0.43;79.03;151261.94;4969314;28;20461;-76
2023/02/07 10:11:41;;;;;;;15.13;10.03;;;;;;;-0.49;77.78;151245.22;4973939;28;21007;-76
2023/02/07 10:14:18;;;;;;;13.50;9.87;;;;;;;-0.33;78.86;151286.28;4970003;28;20482;-76
2023/02/07 10:17:03;;;;;;;13.73;9.43;;;;;;;-0.36;78.79;151278.56;4986133;28;20445;-76
2023/02/07 10:19:37;;;;;;;14.03;9.50;;;;;;;-0.21;77.98;151318.34;4961502;28;20494;-76
2023/02/07 10:22:14;;;;;;;11.57;9.90;;;;;;;-0.23;77.86;151313.22;4969335;28;20524;-76
2023/02/07 10:25:01;;;;;;;14.53;10.13;;;;;;;-0.01;77.31;151369.69;4968500;28;20464;-76
2023/02/07 10:27:31;;;;;;;12.40;9.47;;;;;;;-0.18;78.25;151326.03;4969077;28;20488;-76
2023/02/07 10:30:04;;;;;;;14.17;9.97;;;;;;;-0.22;77.74;151315.81;4985844;28;20447;-76
2023/02/07 10:32:33;;;;;;;9.70;7.53;;;;;;;-0.02;77.67;151367.09;4970561;28;20559;-76
2023/02/07 10:35:02;;;;;;;12.87;8.30;;;;;;;-0.01;77.20;151369.69;4952623;28;20449;-76
2023/02/07 10:37:34;;;;;;;13.70;10.27;;;;;;;-0.07;74.88;151354.28;4969572;28;20547;-76
2023/02/07 10:40:04;;;;;;;13.13;10.50;;;;;;;0.16;75.89;151410.75;4970993;28;20453;-76
2023/02/07 10:42:31;;;;;;;12.27;8.90;;;;;;;0.17;75.05;151413.28;4968855;28;20500;-76
2023/02/07 10:44:58;;;;;;;13.17;10.17;;;;;;;0.08;75.31;151390.22;4971450;28;20449;-76
2023/02/07 10:47:25;;;;;;;15.40;10.50;;;;;;;0.31;76.57;151450.53;4952939;28;20961;-76
2023/02/07 10:49:54;;;;;;;11.17;9.33;;;;;;;0.42;74.18;151478.78;4969325;28;20455;-76
2023/02/07 10:52:34;;;;;;;14.83;8.60;;;;;;;0.55;70.37;151510.88;4980614;28;20454;-76
2023/02/07 10:55:02;;;;;;;9.60;7.17;;;;;;;0.70;68.23;151548.09;4966852;28;20485;-76
2023/02/07 10:57:30;;;;;;;7.50;5.30;;;;;;;0.69;68.35;151546.78;4970432;28;20465;-76
2023/02/07 10:59:59;;;;;;;9.17;7.27;;;;;;;0.59;66.51;151522.41;4966739;28;20451;-76
2023/02/07 11:02:43;;;;;;;9.20;7.27;;;;;;;0.62;66.57;151528.81;4969081;28;20550;-75
2023/02/07 11:05:29;;;;;;;8.87;7.57;;;;;;;0.53;65.39;151507.00;4968642;28;20978;-75
2023/02/07 11:07:59;;;;;;;11.67;8.27;;;;;;;0.55;64.99;151510.88;4967449;28;20561;-75
2023/02/07 11:10:30;;;;;;;13.60;7.87;;;;;;;0.66;64.95;151539.13;4971414;28;20574;-75
2023/02/07 11:12:58;;;;;;;8.57;6.90;;;;;;;0.74;64.44;151558.38;4951321;28;20477;-75
2023/02/07 11:15:31;;;;;;;9.40;6.70;;;;;;;0.84;62.64;151584.06;4968750;28;20772;-75
2023/02/07 11:18:00;;;;;;;11.97;7.10;;;;;;;0.95;62.80;151613.59;4980030;28;20479;-76
2023/02/07 11:20:30;;;;;;;8.80;6.80;;;;;;;0.89;62.24;151598.19;4967845;28;20516;-75
2023/02/07 11:22:59;;;;;;;9.87;7.70;;;;;;;1.06;64.23;151640.56;4950347;28;20451;-75